Terminal Aerodrome Forecast
Issued by NWS

Home | Current Version | Previous Version | Text Only | Print | Product List | Glossary On
Versions: 1 2 3 4 5 6 7 8 9 10 11 12 13 14 15 16
189
FTUS42 KMLB 102327
TAFSUA
TAF
KSUA 102327Z 1100/1124 06011KT P6SM VCSH SCT025 BKN040
     FM110600 08012KT P6SM VCSH BKN035
     FM111400 09014G22KT P6SM VCSH BKN030=

USA.gov is the U.S. government's official web portal to all federal, state and local government web resources and services.